sensor_id;sensor_type;location;lat;lon;timestamp;P1;durP1;ratioP1;P2;durP2;ratioP2
41952;SDS011;63613;28.200;112.870;2022-09-23T00:01:47;22.10;;;19.48;;
41952;SDS011;63613;28.200;112.870;2022-09-23T00:04:17;24.73;;;20.30;;
41952;SDS011;63613;28.200;112.870;2022-09-23T00:06:45;21.67;;;18.77;;
41952;SDS011;63613;28.200;112.870;2022-09-23T00:09:12;24.75;;;19.10;;
41952;SDS011;63613;28.200;112.870;2022-09-23T00:11:39;23.10;;;20.40;;
41952;SDS011;63613;28.200;112.870;2022-09-23T00:14:06;26.52;;;23.75;;
41952;SDS011;63613;28.200;112.870;2022-09-23T00:16:34;35.08;;;29.77;;
41952;SDS011;63613;28.200;112.870;2022-09-23T00:19:03;22.88;;;19.85;;
41952;SDS011;63613;28.200;112.870;2022-09-23T00:21:30;26.33;;;23.38;;
41952;SDS011;63613;28.200;112.870;2022-09-23T00:23:57;28.15;;;21.92;;
41952;SDS011;63613;28.200;112.870;2022-09-23T00:26:25;24.02;;;19.58;;
41952;SDS011;63613;28.200;112.870;2022-09-23T00:28:52;21.77;;;19.02;;
41952;SDS011;63613;28.200;112.870;2022-09-23T00:31:20;20.50;;;18.23;;
41952;SDS011;63613;28.200;112.870;2022-09-23T00:33:55;30.63;;;26.30;;
41952;SDS011;63613;28.200;112.870;2022-09-23T00:36:24;23.77;;;20.33;;
41952;SDS011;63613;28.200;112.870;2022-09-23T00:38:53;34.83;;;31.08;;
41952;SDS011;63613;28.200;112.870;2022-09-23T00:41:24;30.48;;;25.65;;
41952;SDS011;63613;28.200;112.870;2022-09-23T00:43:58;32.17;;;28.83;;
41952;SDS011;63613;28.200;112.870;2022-09-23T00:49:02;38.22;;;28.77;;
41952;SDS011;63613;28.200;112.870;2022-09-23T00:51:52;23.15;;;19.88;;
41952;SDS011;63613;28.200;112.870;2022-09-23T00:54:23;20.83;;;17.85;;
41952;SDS011;63613;28.200;112.870;2022-09-23T00:56:52;26.52;;;21.35;;
41952;SDS011;63613;28.200;112.870;2022-09-23T00:59:21;22.40;;;19.77;;
41952;SDS011;63613;28.200;112.870;2022-09-23T01:01:51;25.05;;;21.42;;
41952;SDS011;63613;28.200;112.870;2022-09-23T01:04:21;26.65;;;23.40;;
41952;SDS011;63613;28.200;112.870;2022-09-23T01:06:50;22.35;;;19.98;;
41952;SDS011;63613;28.200;112.870;2022-09-23T01:09:17;25.05;;;20.40;;
41952;SDS011;63613;28.200;112.870;2022-09-23T01:11:47;22.20;;;18.77;;
41952;SDS011;63613;28.200;112.870;2022-09-23T01:22:38;26.15;;;21.70;;
41952;SDS011;63613;28.200;112.870;2022-09-23T01:41:05;27.88;;;22.00;;
41952;SDS011;63613;28.200;112.870;2022-09-23T01:46:37;27.17;;;22.98;;
41952;SDS011;63613;28.200;112.870;2022-09-23T01:52:14;31.42;;;26.88;;
41952;SDS011;63613;28.200;112.870;2022-09-23T01:54:53;28.55;;;23.50;;
41952;SDS011;63613;28.200;112.870;2022-09-23T01:57:32;27.45;;;23.80;;
41952;SDS011;63613;28.200;112.870;2022-09-23T02:00:12;27.13;;;22.80;;
41952;SDS011;63613;28.200;112.870;2022-09-23T02:02:42;28.15;;;23.00;;
41952;SDS011;63613;28.200;112.870;2022-09-23T02:05:26;28.35;;;23.35;;
41952;SDS011;63613;28.200;112.870;2022-09-23T02:08:05;30.88;;;27.65;;
41952;SDS011;63613;28.200;112.870;2022-09-23T02:13:18;28.38;;;23.30;;
41952;SDS011;63613;28.200;112.870;2022-09-23T02:15:49;27.63;;;24.23;;
41952;SDS011;63613;28.200;112.870;2022-09-23T02:18:52;26.85;;;23.88;;
41952;SDS011;63613;28.200;112.870;2022-09-23T02:21:26;26.55;;;23.38;;
41952;SDS011;63613;28.200;112.870;2022-09-23T02:26:33;34.55;;;30.92;;
41952;SDS011;63613;28.200;112.870;2022-09-23T02:29:26;27.85;;;24.85;;
41952;SDS011;63613;28.200;112.870;2022-09-23T02:35:14;27.40;;;24.58;;
41952;SDS011;63613;28.200;112.870;2022-09-23T02:41:06;27.55;;;20.52;;
41952;SDS011;63613;28.200;112.870;2022-09-23T02:46:28;26.38;;;21.85;;
41952;SDS011;63613;28.200;112.870;2022-09-23T02:48:57;23.70;;;20.60;;
41952;SDS011;63613;28.200;112.870;2022-09-23T02:51:29;32.30;;;26.13;;
41952;SDS011;63613;28.200;112.870;2022-09-23T02:56:31;27.63;;;24.70;;
41952;SDS011;63613;28.200;112.870;2022-09-23T02:58:59;26.90;;;23.27;;
41952;SDS011;63613;28.200;112.870;2022-09-23T03:12:12;28.77;;;22.45;;
41952;SDS011;63613;28.200;112.870;2022-09-23T03:15:06;27.02;;;23.70;;
41952;SDS011;63613;28.200;112.870;2022-09-23T03:17:48;22.15;;;19.83;;
41952;SDS011;63613;28.200;112.870;2022-09-23T03:26:12;26.77;;;21.00;;
41952;SDS011;63613;28.200;112.870;2022-09-23T03:28:44;25.10;;;22.35;;
41952;SDS011;63613;28.200;112.870;2022-09-23T03:31:12;24.70;;;20.05;;
41952;SDS011;63613;28.200;112.870;2022-09-23T03:33:41;30.83;;;24.50;;
41952;SDS011;63613;28.200;112.870;2022-09-23T03:36:15;23.38;;;21.02;;
41952;SDS011;63613;28.200;112.870;2022-09-23T03:39:14;21.38;;;19.10;;
41952;SDS011;63613;28.200;112.870;2022-09-23T03:41:49;25.75;;;22.95;;
41952;SDS011;63613;28.200;112.870;2022-09-23T03:44:20;26.20;;;20.52;;
41952;SDS011;63613;28.200;112.870;2022-09-23T03:46:47;26.67;;;21.83;;
41952;SDS011;63613;28.200;112.870;2022-09-23T03:49:48;31.10;;;24.55;;
41952;SDS011;63613;28.200;112.870;2022-09-23T03:54:36;27.63;;;21.23;;
41952;SDS011;63613;28.200;112.870;2022-09-23T03:57:03;31.55;;;22.70;;
41952;SDS011;63613;28.200;112.870;2022-09-23T03:59:31;29.25;;;22.70;;
41952;SDS011;63613;28.200;112.870;2022-09-23T04:01:59;25.75;;;22.90;;
41952;SDS011;63613;28.200;112.870;2022-09-23T04:04:27;30.30;;;23.27;;
41952;SDS011;63613;28.200;112.870;2022-09-23T04:06:59;24.65;;;21.95;;
41952;SDS011;63613;28.200;112.870;2022-09-23T04:09:29;25.85;;;23.15;;
41952;SDS011;63613;28.200;112.870;2022-09-23T04:11:56;29.65;;;26.45;;
41952;SDS011;63613;28.200;112.870;2022-09-23T04:14:23;30.58;;;24.85;;
41952;SDS011;63613;28.200;112.870;2022-09-23T04:17:10;26.33;;;22.02;;
41952;SDS011;63613;28.200;112.870;2022-09-23T04:19:38;25.77;;;22.58;;
41952;SDS011;63613;28.200;112.870;2022-09-23T04:22:07;26.95;;;23.88;;
41952;SDS011;63613;28.200;112.870;2022-09-23T04:24:34;25.10;;;22.00;;
41952;SDS011;63613;28.200;112.870;2022-09-23T04:27:02;29.15;;;25.15;;
41952;SDS011;63613;28.200;112.870;2022-09-23T04:29:29;23.85;;;21.27;;
41952;SDS011;63613;28.200;112.870;2022-09-23T04:31:56;26.35;;;22.75;;
41952;SDS011;63613;28.200;112.870;2022-09-23T04:34:23;28.70;;;24.95;;
41952;SDS011;63613;28.200;112.870;2022-09-23T04:36:53;27.88;;;24.23;;
41952;SDS011;63613;28.200;112.870;2022-09-23T04:39:20;27.60;;;24.80;;
41952;SDS011;63613;28.200;112.870;2022-09-23T04:41:47;27.38;;;24.05;;
41952;SDS011;63613;28.200;112.870;2022-09-23T04:44:15;31.50;;;26.52;;
41952;SDS011;63613;28.200;112.870;2022-09-23T04:47:03;27.92;;;24.92;;
41952;SDS011;63613;28.200;112.870;2022-09-23T04:49:50;27.58;;;24.65;;
41952;SDS011;63613;28.200;112.870;2022-09-23T04:52:17;32.03;;;28.73;;
41952;SDS011;63613;28.200;112.870;2022-09-23T04:57:32;34.60;;;30.92;;
41952;SDS011;63613;28.200;112.870;2022-09-23T04:59:59;28.65;;;25.63;;
41952;SDS011;63613;28.200;112.870;2022-09-23T05:02:27;34.45;;;30.75;;
41952;SDS011;63613;28.200;112.870;2022-09-23T05:04:54;30.00;;;26.88;;
41952;SDS011;63613;28.200;112.870;2022-09-23T05:07:22;27.67;;;24.80;;
41952;SDS011;63613;28.200;112.870;2022-09-23T05:09:50;34.30;;;30.55;;
41952;SDS011;63613;28.200;112.870;2022-09-23T05:12:17;32.00;;;28.60;;
41952;SDS011;63613;28.200;112.870;2022-09-23T05:14:44;30.08;;;25.42;;
41952;SDS011;63613;28.200;112.870;2022-09-23T05:17:11;29.40;;;24.83;;
41952;SDS011;63613;28.200;112.870;2022-09-23T05:19:39;31.58;;;28.20;;
41952;SDS011;63613;28.200;112.870;2022-09-23T05:22:06;29.88;;;26.65;;
41952;SDS011;63613;28.200;112.870;2022-09-23T05:24:34;32.28;;;28.48;;
41952;SDS011;63613;28.200;112.870;2022-09-23T05:27:21;30.55;;;27.35;;
41952;SDS011;63613;28.200;112.870;2022-09-23T05:29:49;31.25;;;28.05;;
41952;SDS011;63613;28.200;112.870;2022-09-23T05:32:17;37.03;;;33.42;;
41952;SDS011;63613;28.200;112.870;2022-09-23T05:34:47;38.33;;;34.42;;
41952;SDS011;63613;28.200;112.870;2022-09-23T05:37:15;29.63;;;26.42;;
41952;SDS011;63613;28.200;112.870;2022-09-23T05:39:43;29.33;;;25.67;;
41952;SDS011;63613;28.200;112.870;2022-09-23T05:42:10;31.13;;;26.98;;
41952;SDS011;63613;28.200;112.870;2022-09-23T05:44:37;37.70;;;33.70;;
41952;SDS011;63613;28.200;112.870;2022-09-23T05:47:09;29.27;;;26.23;;
41952;SDS011;63613;28.200;112.870;2022-09-23T05:49:43;29.83;;;26.75;;
41952;SDS011;63613;28.200;112.870;2022-09-23T05:52:30;28.98;;;25.98;;
41952;SDS011;63613;28.200;112.870;2022-09-23T05:54:59;29.17;;;26.15;;
41952;SDS011;63613;28.200;112.870;2022-09-23T05:57:30;27.30;;;23.85;;
41952;SDS011;63613;28.200;112.870;2022-09-23T06:00:21;32.80;;;27.63;;
41952;SDS011;63613;28.200;112.870;2022-09-23T06:02:58;26.92;;;24.02;;
41952;SDS011;63613;28.200;112.870;2022-09-23T06:05:51;32.53;;;26.92;;
41952;SDS011;63613;28.200;112.870;2022-09-23T06:08:22;33.72;;;30.00;;
41952;SDS011;63613;28.200;112.870;2022-09-23T06:10:49;32.35;;;26.00;;
41952;SDS011;63613;28.200;112.870;2022-09-23T06:13:16;25.95;;;22.83;;
41952;SDS011;63613;28.200;112.870;2022-09-23T06:15:43;31.52;;;28.05;;
41952;SDS011;63613;28.200;112.870;2022-09-23T06:18:11;24.05;;;21.65;;
41952;SDS011;63613;28.200;112.870;2022-09-23T06:20:38;25.65;;;22.63;;
41952;SDS011;63613;28.200;112.870;2022-09-23T06:23:07;29.75;;;24.08;;
41952;SDS011;63613;28.200;112.870;2022-09-23T06:25:36;26.67;;;23.80;;
41952;SDS011;63613;28.200;112.870;2022-09-23T06:28:03;25.23;;;22.63;;
41952;SDS011;63613;28.200;112.870;2022-09-23T06:30:37;23.67;;;20.50;;
41952;SDS011;63613;28.200;112.870;2022-09-23T06:33:05;26.73;;;23.23;;
41952;SDS011;63613;28.200;112.870;2022-09-23T06:35:59;27.27;;;24.10;;
41952;SDS011;63613;28.200;112.870;2022-09-23T06:38:28;24.98;;;22.48;;
41952;SDS011;63613;28.200;112.870;2022-09-23T06:40:58;30.98;;;27.60;;
41952;SDS011;63613;28.200;112.870;2022-09-23T06:43:27;26.30;;;23.13;;
41952;SDS011;63613;28.200;112.870;2022-09-23T06:45:56;23.13;;;20.83;;
41952;SDS011;63613;28.200;112.870;2022-09-23T06:48:25;25.02;;;22.25;;
41952;SDS011;63613;28.200;112.870;2022-09-23T06:50:53;26.48;;;23.77;;
41952;SDS011;63613;28.200;112.870;2022-09-23T06:53:24;31.17;;;26.75;;
41952;SDS011;63613;28.200;112.870;2022-09-23T06:55:57;26.25;;;22.48;;
41952;SDS011;63613;28.200;112.870;2022-09-23T06:58:29;28.90;;;25.83;;
41952;SDS011;63613;28.200;112.870;2022-09-23T07:01:04;26.20;;;23.17;;
41952;SDS011;63613;28.200;112.870;2022-09-23T07:03:36;30.02;;;26.02;;
41952;SDS011;63613;28.200;112.870;2022-09-23T07:06:04;23.92;;;21.42;;
41952;SDS011;63613;28.200;112.870;2022-09-23T07:08:32;27.52;;;24.02;;
41952;SDS011;63613;28.200;112.870;2022-09-23T07:11:20;28.83;;;25.52;;
41952;SDS011;63613;28.200;112.870;2022-09-23T07:13:47;23.30;;;21.00;;
41952;SDS011;63613;28.200;112.870;2022-09-23T07:16:15;28.20;;;22.55;;
41952;SDS011;63613;28.200;112.870;2022-09-23T07:19:02;23.67;;;21.15;;
41952;SDS011;63613;28.200;112.870;2022-09-23T07:21:29;30.45;;;25.27;;
41952;SDS011;63613;28.200;112.870;2022-09-23T07:23:59;25.90;;;20.90;;
41952;SDS011;63613;28.200;112.870;2022-09-23T07:26:26;26.90;;;23.73;;
41952;SDS011;63613;28.200;112.870;2022-09-23T07:28:54;27.70;;;24.70;;
41952;SDS011;63613;28.200;112.870;2022-09-23T07:31:29;24.98;;;21.48;;
41952;SDS011;63613;28.200;112.870;2022-09-23T07:33:58;22.88;;;20.45;;
41952;SDS011;63613;28.200;112.870;2022-09-23T07:36:27;23.38;;;19.52;;
41952;SDS011;63613;28.200;112.870;2022-09-23T07:39:01;22.75;;;20.35;;
41952;SDS011;63613;28.200;112.870;2022-09-23T07:41:30;24.35;;;21.00;;
41952;SDS011;63613;28.200;112.870;2022-09-23T07:43:58;24.35;;;20.67;;
41952;SDS011;63613;28.200;112.870;2022-09-23T07:46:26;22.55;;;17.58;;
41952;SDS011;63613;28.200;112.870;2022-09-23T07:48:56;24.85;;;19.83;;
41952;SDS011;63613;28.200;112.870;2022-09-23T07:53:52;20.10;;;17.95;;
41952;SDS011;63613;28.200;112.870;2022-09-23T07:56:41;22.95;;;20.58;;
41952;SDS011;63613;28.200;112.870;2022-09-23T07:59:10;22.52;;;18.95;;
41952;SDS011;63613;28.200;112.870;2022-09-23T08:01:41;26.40;;;20.20;;
41952;SDS011;63613;28.200;112.870;2022-09-23T08:04:12;21.13;;;18.58;;
41952;SDS011;63613;28.200;112.870;2022-09-23T08:06:50;25.58;;;22.30;;
41952;SDS011;63613;28.200;112.870;2022-09-23T08:09:19;25.67;;;20.25;;
41952;SDS011;63613;28.200;112.870;2022-09-23T08:11:49;23.17;;;18.75;;
41952;SDS011;63613;28.200;112.870;2022-09-23T08:14:17;20.83;;;18.63;;
41952;SDS011;63613;28.200;112.870;2022-09-23T08:16:46;26.25;;;20.23;;
41952;SDS011;63613;28.200;112.870;2022-09-23T08:19:14;20.92;;;18.05;;
41952;SDS011;63613;28.200;112.870;2022-09-23T08:21:42;22.60;;;20.23;;
41952;SDS011;63613;28.200;112.870;2022-09-23T08:24:15;22.50;;;19.88;;
41952;SDS011;63613;28.200;112.870;2022-09-23T08:26:44;22.13;;;19.85;;
41952;SDS011;63613;28.200;112.870;2022-09-23T08:29:19;25.85;;;20.05;;
41952;SDS011;63613;28.200;112.870;2022-09-23T08:31:48;24.30;;;21.85;;
41952;SDS011;63613;28.200;112.870;2022-09-23T08:34:16;25.27;;;21.17;;
41952;SDS011;63613;28.200;112.870;2022-09-23T08:36:44;27.77;;;22.85;;
41952;SDS011;63613;28.200;112.870;2022-09-23T08:39:13;28.65;;;25.70;;
41952;SDS011;63613;28.200;112.870;2022-09-23T08:44:52;27.83;;;23.77;;
41952;SDS011;63613;28.200;112.870;2022-09-23T08:50:07;30.15;;;26.83;;
41952;SDS011;63613;28.200;112.870;2022-09-23T08:52:55;28.75;;;25.65;;
41952;SDS011;63613;28.200;112.870;2022-09-23T08:55:32;30.45;;;25.92;;
41952;SDS011;63613;28.200;112.870;2022-09-23T09:00:38;28.90;;;26.00;;
41952;SDS011;63613;28.200;112.870;2022-09-23T09:03:15;26.83;;;24.08;;
41952;SDS011;63613;28.200;112.870;2022-09-23T09:05:48;28.27;;;25.38;;
41952;SDS011;63613;28.200;112.870;2022-09-23T09:08:24;30.80;;;26.98;;
41952;SDS011;63613;28.200;112.870;2022-09-23T09:10:56;29.23;;;26.02;;
41952;SDS011;63613;28.200;112.870;2022-09-23T09:14:25;37.53;;;29.67;;
41952;SDS011;63613;28.200;112.870;2022-09-23T09:19:16;30.23;;;25.90;;
41952;SDS011;63613;28.200;112.870;2022-09-23T09:22:08;28.05;;;25.02;;
41952;SDS011;63613;28.200;112.870;2022-09-23T09:24:47;28.63;;;25.63;;
41952;SDS011;63613;28.200;112.870;2022-09-23T09:27:15;27.80;;;24.88;;
41952;SDS011;63613;28.200;112.870;2022-09-23T09:29:45;35.53;;;28.70;;
41952;SDS011;63613;28.200;112.870;2022-09-23T09:32:23;29.23;;;24.60;;
41952;SDS011;63613;28.200;112.870;2022-09-23T09:35:23;29.92;;;26.63;;
41952;SDS011;63613;28.200;112.870;2022-09-23T09:38:20;28.00;;;24.23;;
41952;SDS011;63613;28.200;112.870;2022-09-23T09:40:47;26.52;;;23.60;;
41952;SDS011;63613;28.200;112.870;2022-09-23T09:43:16;32.90;;;28.38;;
41952;SDS011;63613;28.200;112.870;2022-09-23T09:46:01;30.85;;;24.13;;
41952;SDS011;63613;28.200;112.870;2022-09-23T09:49:02;30.90;;;25.58;;
41952;SDS011;63613;28.200;112.870;2022-09-23T09:51:40;32.08;;;25.98;;
41952;SDS011;63613;28.200;112.870;2022-09-23T09:54:22;29.95;;;24.60;;
41952;SDS011;63613;28.200;112.870;2022-09-23T09:56:51;28.27;;;23.58;;
41952;SDS011;63613;28.200;112.870;2022-09-23T09:59:28;24.92;;;22.33;;
41952;SDS011;63613;28.200;112.870;2022-09-23T10:05:01;33.25;;;27.30;;
41952;SDS011;63613;28.200;112.870;2022-09-23T10:07:35;30.98;;;24.60;;
41952;SDS011;63613;28.200;112.870;2022-09-23T10:10:19;23.45;;;20.95;;
41952;SDS011;63613;28.200;112.870;2022-09-23T10:12:50;32.17;;;28.77;;
41952;SDS011;63613;28.200;112.870;2022-09-23T10:15:28;25.40;;;22.67;;
41952;SDS011;63613;28.200;112.870;2022-09-23T10:17:57;32.08;;;26.92;;
41952;SDS011;63613;28.200;112.870;2022-09-23T10:20:33;26.85;;;23.88;;
41952;SDS011;63613;28.200;112.870;2022-09-23T10:23:10;26.17;;;22.30;;
41952;SDS011;63613;28.200;112.870;2022-09-23T10:26:04;24.73;;;21.90;;
41952;SDS011;63613;28.200;112.870;2022-09-23T10:31:10;32.58;;;28.15;;
41952;SDS011;63613;28.200;112.870;2022-09-23T10:33:41;25.70;;;21.80;;
41952;SDS011;63613;28.200;112.870;2022-09-23T10:36:18;28.77;;;25.02;;
41952;SDS011;63613;28.200;112.870;2022-09-23T10:38:50;33.92;;;29.13;;
41952;SDS011;63613;28.200;112.870;2022-09-23T10:41:43;39.58;;;29.23;;
41952;SDS011;63613;28.200;112.870;2022-09-23T10:53:11;31.50;;;24.90;;
41952;SDS011;63613;28.200;112.870;2022-09-23T11:12:52;34.90;;;27.27;;
41952;SDS011;63613;28.200;112.870;2022-09-23T11:27:21;36.85;;;26.10;;
41952;SDS011;63613;28.200;112.870;2022-09-23T11:37:49;35.75;;;28.15;;
41952;SDS011;63613;28.200;112.870;2022-09-23T11:40:41;36.28;;;31.42;;
41952;SDS011;63613;28.200;112.870;2022-09-23T11:43:19;32.40;;;28.88;;
41952;SDS011;63613;28.200;112.870;2022-09-23T11:48:50;44.67;;;39.00;;
41952;SDS011;63613;28.200;112.870;2022-09-23T11:51:32;42.70;;;33.83;;
41952;SDS011;63613;28.200;112.870;2022-09-23T11:54:19;32.58;;;28.45;;
41952;SDS011;63613;28.200;112.870;2022-09-23T11:56:57;35.58;;;29.83;;
41952;SDS011;63613;28.200;112.870;2022-09-23T12:02:26;36.92;;;32.08;;
41952;SDS011;63613;28.200;112.870;2022-09-23T12:04:56;35.13;;;28.90;;
41952;SDS011;63613;28.200;112.870;2022-09-23T12:08:25;34.53;;;30.27;;
41952;SDS011;63613;28.200;112.870;2022-09-23T12:11:15;39.38;;;30.77;;
41952;SDS011;63613;28.200;112.870;2022-09-23T12:26:57;48.15;;;39.33;;
41952;SDS011;63613;28.200;112.870;2022-09-23T12:29:30;37.92;;;30.50;;
41952;SDS011;63613;28.200;112.870;2022-09-23T12:32:00;38.03;;;31.45;;
41952;SDS011;63613;28.200;112.870;2022-09-23T12:34:41;36.35;;;29.45;;
41952;SDS011;63613;28.200;112.870;2022-09-23T12:40:08;39.72;;;31.65;;
41952;SDS011;63613;28.200;112.870;2022-09-23T12:42:46;32.40;;;28.77;;
41952;SDS011;63613;28.200;112.870;2022-09-23T12:48:24;35.78;;;28.42;;
41952;SDS011;63613;28.200;112.870;2022-09-23T12:56:20;34.60;;;26.90;;
41952;SDS011;63613;28.200;112.870;2022-09-23T13:01:18;37.53;;;30.40;;
41952;SDS011;63613;28.200;112.870;2022-09-23T13:09:29;38.67;;;28.83;;
41952;SDS011;63613;28.200;112.870;2022-09-23T13:12:04;37.58;;;31.50;;
41952;SDS011;63613;28.200;112.870;2022-09-23T13:14:38;40.67;;;32.03;;
41952;SDS011;63613;28.200;112.870;2022-09-23T13:17:31;44.78;;;34.55;;
41952;SDS011;63613;28.200;112.870;2022-09-23T13:20:05;41.65;;;31.95;;
41952;SDS011;63613;28.200;112.870;2022-09-23T13:23:42;36.50;;;30.05;;
41952;SDS011;63613;28.200;112.870;2022-09-23T13:28:38;42.85;;;31.05;;
41952;SDS011;63613;28.200;112.870;2022-09-23T13:31:18;40.22;;;28.85;;
41952;SDS011;63613;28.200;112.870;2022-09-23T13:36:18;39.40;;;32.38;;
41952;SDS011;63613;28.200;112.870;2022-09-23T13:38:45;37.35;;;32.17;;
41952;SDS011;63613;28.200;112.870;2022-09-23T13:41:22;37.70;;;29.52;;
41952;SDS011;63613;28.200;112.870;2022-09-23T13:43:53;40.50;;;30.73;;
41952;SDS011;63613;28.200;112.870;2022-09-23T13:46:27;41.95;;;33.63;;
41952;SDS011;63613;28.200;112.870;2022-09-23T13:49:17;39.03;;;34.78;;
41952;SDS011;63613;28.200;112.870;2022-09-23T13:51:51;36.72;;;31.38;;
41952;SDS011;63613;28.200;112.870;2022-09-23T13:54:29;41.08;;;31.17;;
41952;SDS011;63613;28.200;112.870;2022-09-23T13:57:29;41.95;;;35.72;;
41952;SDS011;63613;28.200;112.870;2022-09-23T14:02:46;40.42;;;29.05;;
41952;SDS011;63613;28.200;112.870;2022-09-23T14:05:20;39.65;;;31.25;;
41952;SDS011;63613;28.200;112.870;2022-09-23T14:08:10;46.97;;;40.50;;
41952;SDS011;63613;28.200;112.870;2022-09-23T14:10:38;46.55;;;37.45;;
41952;SDS011;63613;28.200;112.870;2022-09-23T14:13:14;42.15;;;36.88;;
41952;SDS011;63613;28.200;112.870;2022-09-23T14:15:46;43.50;;;34.30;;
41952;SDS011;63613;28.200;112.870;2022-09-23T14:18:18;43.47;;;33.88;;
41952;SDS011;63613;28.200;112.870;2022-09-23T14:21:31;49.58;;;38.05;;
41952;SDS011;63613;28.200;112.870;2022-09-23T14:27:29;46.10;;;32.47;;
41952;SDS011;63613;28.200;112.870;2022-09-23T14:29:37;47.40;;;36.20;;
41952;SDS011;63613;28.200;112.870;2022-09-23T14:32:10;45.13;;;34.55;;
41952;SDS011;63613;28.200;112.870;2022-09-23T14:34:49;42.92;;;29.48;;
41952;SDS011;63613;28.200;112.870;2022-09-23T14:37:23;43.00;;;31.80;;
41952;SDS011;63613;28.200;112.870;2022-09-23T14:45:51;41.42;;;30.13;;
41952;SDS011;63613;28.200;112.870;2022-09-23T14:51:01;34.25;;;28.90;;
41952;SDS011;63613;28.200;112.870;2022-09-23T14:53:50;41.17;;;31.40;;
41952;SDS011;63613;28.200;112.870;2022-09-23T14:56:19;41.72;;;32.53;;
41952;SDS011;63613;28.200;112.870;2022-09-23T14:58:57;43.60;;;32.25;;
41952;SDS011;63613;28.200;112.870;2022-09-23T15:04:10;39.67;;;31.70;;
41952;SDS011;63613;28.200;112.870;2022-09-23T15:06:42;40.13;;;31.38;;
41952;SDS011;63613;28.200;112.870;2022-09-23T15:09:16;34.55;;;28.45;;
41952;SDS011;63613;28.200;112.870;2022-09-23T15:11:58;38.65;;;31.00;;
41952;SDS011;63613;28.200;112.870;2022-09-23T15:14:32;42.90;;;31.30;;
41952;SDS011;63613;28.200;112.870;2022-09-23T15:17:11;35.85;;;27.17;;
41952;SDS011;63613;28.200;112.870;2022-09-23T15:20:07;41.08;;;31.40;;
41952;SDS011;63613;28.200;112.870;2022-09-23T15:22:50;35.85;;;28.75;;
41952;SDS011;63613;28.200;112.870;2022-09-23T15:25:34;35.85;;;28.75;;
41952;SDS011;63613;28.200;112.870;2022-09-23T15:30:37;34.38;;;26.90;;
41952;SDS011;63613;28.200;112.870;2022-09-23T15:33:05;34.45;;;27.00;;
41952;SDS011;63613;28.200;112.870;2022-09-23T15:35:34;39.45;;;27.92;;
41952;SDS011;63613;28.200;112.870;2022-09-23T15:38:02;32.92;;;27.67;;
41952;SDS011;63613;28.200;112.870;2022-09-23T15:40:33;31.30;;;26.25;;
41952;SDS011;63613;28.200;112.870;2022-09-23T15:43:06;34.40;;;26.90;;
41952;SDS011;63613;28.200;112.870;2022-09-23T15:45:48;36.08;;;26.35;;
41952;SDS011;63613;28.200;112.870;2022-09-23T15:48:26;37.95;;;27.17;;
41952;SDS011;63613;28.200;112.870;2022-09-23T15:50:57;35.67;;;26.40;;
41952;SDS011;63613;28.200;112.870;2022-09-23T15:53:29;35.58;;;27.70;;
41952;SDS011;63613;28.200;112.870;2022-09-23T15:55:58;36.60;;;26.95;;
41952;SDS011;63613;28.200;112.870;2022-09-23T15:58:25;37.90;;;26.48;;
41952;SDS011;63613;28.200;112.870;2022-09-23T16:00:53;36.75;;;28.00;;
41952;SDS011;63613;28.200;112.870;2022-09-23T16:03:21;36.15;;;26.35;;
41952;SDS011;63613;28.200;112.870;2022-09-23T16:05:56;36.75;;;27.88;;
41952;SDS011;63613;28.200;112.870;2022-09-23T16:08:43;36.28;;;25.77;;
41952;SDS011;63613;28.200;112.870;2022-09-23T16:11:19;33.40;;;25.20;;
41952;SDS011;63613;28.200;112.870;2022-09-23T16:13:51;33.80;;;25.35;;
41952;SDS011;63613;28.200;112.870;2022-09-23T16:16:18;32.63;;;25.50;;
41952;SDS011;63613;28.200;112.870;2022-09-23T16:18:45;36.05;;;26.33;;
41952;SDS011;63613;28.200;112.870;2022-09-23T16:21:15;32.63;;;25.00;;
41952;SDS011;63613;28.200;112.870;2022-09-23T16:24:02;30.92;;;25.35;;
41952;SDS011;63613;28.200;112.870;2022-09-23T16:26:30;38.15;;;26.45;;
41952;SDS011;63613;28.200;112.870;2022-09-23T16:29:00;35.03;;;24.00;;
41952;SDS011;63613;28.200;112.870;2022-09-23T16:31:27;37.53;;;24.73;;
41952;SDS011;63613;28.200;112.870;2022-09-23T16:33:55;39.78;;;26.23;;
41952;SDS011;63613;28.200;112.870;2022-09-23T16:36:27;38.30;;;24.58;;
41952;SDS011;63613;28.200;112.870;2022-09-23T16:38:59;33.50;;;24.70;;
41952;SDS011;63613;28.200;112.870;2022-09-23T16:41:29;35.88;;;24.98;;
41952;SDS011;63613;28.200;112.870;2022-09-23T16:43:56;35.65;;;23.35;;
41952;SDS011;63613;28.200;112.870;2022-09-23T16:46:26;34.85;;;22.63;;
41952;SDS011;63613;28.200;112.870;2022-09-23T16:48:56;36.63;;;23.42;;
41952;SDS011;63613;28.200;112.870;2022-09-23T16:51:24;33.03;;;24.35;;
41952;SDS011;63613;28.200;112.870;2022-09-23T16:53:54;37.83;;;23.85;;
41952;SDS011;63613;28.200;112.870;2022-09-23T16:56:42;35.67;;;23.40;;
41952;SDS011;63613;28.200;112.870;2022-09-23T16:59:10;29.33;;;22.08;;
41952;SDS011;63613;28.200;112.870;2022-09-23T17:01:38;31.88;;;21.52;;
41952;SDS011;63613;28.200;112.870;2022-09-23T17:04:23;30.40;;;22.00;;
41952;SDS011;63613;28.200;112.870;2022-09-23T17:06:52;31.67;;;21.13;;
41952;SDS011;63613;28.200;112.870;2022-09-23T17:09:41;32.75;;;22.52;;
41952;SDS011;63613;28.200;112.870;2022-09-23T17:12:10;33.05;;;21.48;;
41952;SDS011;63613;28.200;112.870;2022-09-23T17:14:44;37.88;;;21.85;;
41952;SDS011;63613;28.200;112.870;2022-09-23T17:17:12;36.00;;;21.27;;
41952;SDS011;63613;28.200;112.870;2022-09-23T17:19:39;29.77;;;20.20;;
41952;SDS011;63613;28.200;112.870;2022-09-23T17:22:07;33.33;;;21.83;;
41952;SDS011;63613;28.200;112.870;2022-09-23T17:24:34;31.95;;;22.23;;
41952;SDS011;63613;28.200;112.870;2022-09-23T17:27:22;30.15;;;20.33;;
41952;SDS011;63613;28.200;112.870;2022-09-23T17:29:49;32.53;;;20.02;;
41952;SDS011;63613;28.200;112.870;2022-09-23T17:32:16;32.00;;;20.25;;
41952;SDS011;63613;28.200;112.870;2022-09-23T17:34:43;27.55;;;20.38;;
41952;SDS011;63613;28.200;112.870;2022-09-23T17:37:10;32.17;;;20.80;;
41952;SDS011;63613;28.200;112.870;2022-09-23T17:39:37;35.95;;;20.02;;
41952;SDS011;63613;28.200;112.870;2022-09-23T17:42:07;31.05;;;19.60;;
41952;SDS011;63613;28.200;112.870;2022-09-23T17:44:34;33.20;;;19.48;;
41952;SDS011;63613;28.200;112.870;2022-09-23T17:47:22;32.50;;;20.02;;
41952;SDS011;63613;28.200;112.870;2022-09-23T17:49:50;30.35;;;18.65;;
41952;SDS011;63613;28.200;112.870;2022-09-23T17:52:18;31.20;;;19.33;;
41952;SDS011;63613;28.200;112.870;2022-09-23T17:54:46;30.63;;;19.08;;